Time;durP1;ratioP1;P1;durP2;ratioP2;P2;SDS_P1;SDS_P2;PMS_P1;PMS_P2;Temp;Humidity;BMP_temperature;BMP_pressure;BME280_temperature;BME280_humidity;BME280_pressure;Samples;Min_cycle;Max_cycle;Signal;HPM_P1;HPM_P2
2021/10/24 00:01:30;;;;;;;3.25;2.60;;;17.80;69.90;;;;;;10344409;28;20493;-55
2021/10/24 00:06:31;;;;;;;3.30;2.58;;;17.70;69.90;;;;;;10370127;28;20116;-56
2021/10/24 00:11:32;;;;;;;6.00;2.80;;;17.70;70.10;;;;;;10373417;28;20050;-55
2021/10/24 00:16:33;;;;;;;3.25;2.38;;;17.70;69.80;;;;;;10334841;28;20030;-55
2021/10/24 00:21:34;;;;;;;4.38;2.75;;;17.70;69.80;;;;;;10334567;28;20022;-55
2021/10/24 00:26:35;;;;;;;3.22;2.42;;;17.70;69.80;;;;;;10350741;28;20045;-55
2021/10/24 00:31:36;;;;;;;3.42;2.45;;;17.70;69.80;;;;;;10347293;28;20044;-55
2021/10/24 00:36:36;;;;;;;3.30;2.40;;;17.60;69.70;;;;;;10341261;28;20038;-56
2021/10/24 00:41:37;;;;;;;4.07;2.60;;;17.70;69.80;;;;;;10333827;28;20122;-54
2021/10/24 00:46:38;;;;;;;3.20;2.58;;;17.70;69.50;;;;;;10337902;28;20510;-55
2021/10/24 00:51:38;;;;;;;2.90;2.42;;;17.80;69.20;;;;;;10333978;28;20110;-55
2021/10/24 00:56:42;;;;;;;3.50;2.42;;;17.90;69.00;;;;;;10352255;28;20587;-55
2021/10/24 01:01:44;;;;;;;5.45;2.83;;;17.80;68.90;;;;;;10372286;28;20381;-54
2021/10/24 01:06:49;;;;;;;3.33;2.40;;;17.80;69.10;;;;;;10331337;28;20363;-55
2021/10/24 01:11:51;;;;;;;2.83;2.25;;;17.80;69.80;;;;;;10340264;28;20032;-55
2021/10/24 01:16:52;;;;;;;2.92;2.15;;;17.80;68.90;;;;;;10368635;28;20553;-54
2021/10/24 01:21:53;;;;;;;2.47;1.85;;;17.80;68.90;;;;;;10334615;28;20140;-54
2021/10/24 01:26:55;;;;;;;2.35;1.98;;;17.80;68.90;;;;;;10345646;28;20038;-54
2021/10/24 01:31:56;;;;;;;4.78;2.40;;;17.80;69.00;;;;;;10334094;28;20032;-55
2021/10/24 01:36:56;;;;;;;2.83;2.25;;;17.80;68.70;;;;;;10345387;28;20109;-54
2021/10/24 01:41:57;;;;;;;2.42;1.80;;;17.80;68.80;;;;;;10334687;28;20396;-55
2021/10/24 01:46:58;;;;;;;2.63;1.83;;;17.70;68.80;;;;;;10333891;28;20054;-55
2021/10/24 01:52:02;;;;;;;3.03;2.05;;;17.70;69.20;;;;;;10336522;28;20034;-55
2021/10/24 01:57:03;;;;;;;2.08;1.73;;;17.80;68.40;;;;;;10349213;28;20037;-54
2021/10/24 02:02:03;;;;;;;3.00;2.10;;;17.90;68.20;;;;;;10377211;28;20041;-54
2021/10/24 02:07:04;;;;;;;2.95;1.80;;;17.90;68.20;;;;;;10338281;28;20069;-55
2021/10/24 02:12:05;;;;;;;2.88;2.20;;;17.80;68.30;;;;;;10365502;28;20121;-56
2021/10/24 02:17:06;;;;;;;2.53;1.80;;;17.70;68.40;;;;;;10373181;28;20132;-54
2021/10/24 02:22:06;;;;;;;3.25;2.10;;;17.70;68.50;;;;;;10338810;28;20153;-56
2021/10/24 02:27:07;;;;;;;2.83;2.10;;;17.80;68.40;;;;;;10357332;28;20070;-55
2021/10/24 02:32:08;;;;;;;3.13;1.75;;;17.70;68.20;;;;;;10344575;28;20026;-55
2021/10/24 02:37:09;;;;;;;2.60;2.28;;;17.90;68.10;;;;;;10356316;28;20034;-55
2021/10/24 02:42:10;;;;;;;1.92;1.48;;;17.90;67.90;;;;;;10377152;28;20413;-56
2021/10/24 02:47:11;;;;;;;2.83;1.90;;;17.80;67.90;;;;;;10376996;28;20041;-56
2021/10/24 02:52:11;;;;;;;2.50;1.73;;;17.80;68.00;;;;;;10376664;28;20033;-55
2021/10/24 02:57:12;;;;;;;3.55;2.15;;;17.90;67.90;;;;;;10375499;28;20466;-54
2021/10/24 03:02:13;;;;;;;2.05;1.60;;;17.90;67.80;;;;;;10349135;28;20113;-54
2021/10/24 03:07:14;;;;;;;4.00;3.00;;;17.80;67.90;;;;;;10335871;28;20340;-56
2021/10/24 03:12:14;;;;;;;3.05;2.17;;;17.90;67.90;;;;;;10363139;28;20048;-55
2021/10/24 03:17:15;;;;;;;3.03;2.03;;;17.80;67.70;;;;;;10351862;28;20054;-56
2021/10/24 03:22:16;;;;;;;2.30;1.60;;;17.80;67.80;;;;;;10339664;28;20037;-52
2021/10/24 03:27:16;;;;;;;3.47;1.95;;;17.80;67.90;;;;;;10345957;28;20418;-54
2021/10/24 03:32:17;;;;;;;2.45;1.60;;;17.80;67.70;;;;;;10342906;28;20481;-55
2021/10/24 03:37:18;;;;;;;2.47;1.77;;;17.80;67.80;;;;;;10351721;28;20074;-55
2021/10/24 03:42:19;;;;;;;2.65;1.80;;;17.80;67.90;;;;;;10367974;28;20038;-55
2021/10/24 03:47:20;;;;;;;3.22;1.80;;;17.80;67.60;;;;;;10374857;28;20096;-54
2021/10/24 03:52:21;;;;;;;3.15;1.58;;;17.80;67.60;;;;;;10374150;28;20030;-54
2021/10/24 03:57:21;;;;;;;2.38;1.70;;;17.70;67.70;;;;;;10371819;28;20038;-54
2021/10/24 04:02:22;;;;;;;2.80;1.50;;;17.80;67.50;;;;;;10348786;28;20038;-56
2021/10/24 04:07:23;;;;;;;3.15;1.77;;;17.90;67.40;;;;;;10332453;28;20065;-56
2021/10/24 04:12:23;;;;;;;2.38;1.73;;;17.90;67.30;;;;;;10362550;28;20030;-55
2021/10/24 04:17:24;;;;;;;2.85;2.08;;;17.80;67.30;;;;;;10359738;28;20486;-54
2021/10/24 04:22:25;;;;;;;2.30;1.80;;;17.80;67.60;;;;;;10341495;28;20869;-53
2021/10/24 04:27:25;;;;;;;3.03;1.45;;;17.80;67.40;;;;;;10356691;28;20141;-55
2021/10/24 04:32:27;;;;;;;3.38;2.22;;;17.80;67.30;;;;;;10339637;28;20132;-56
2021/10/24 04:37:27;;;;;;;2.53;1.70;;;17.90;67.20;;;;;;10347932;28;20034;-55
2021/10/24 04:42:28;;;;;;;2.08;1.60;;;17.90;66.90;;;;;;10372536;28;20133;-56
2021/10/24 04:47:29;;;;;;;2.45;1.67;;;18.10;66.50;;;;;;10372758;28;20026;-54
2021/10/24 04:52:30;;;;;;;1.80;1.45;;;18.10;66.30;;;;;;10372308;28;20076;-55
2021/10/24 04:57:31;;;;;;;4.22;2.33;;;18.20;66.10;;;;;;10367785;28;20036;-55
2021/10/24 05:02:34;;;;;;;3.55;2.10;;;18.20;66.00;;;;;;10344946;28;20036;-54
2021/10/24 05:07:35;;;;;;;2.55;2.25;;;18.20;66.10;;;;;;10340267;28;20103;-55
2021/10/24 05:12:36;;;;;;;2.53;1.92;;;18.30;66.00;;;;;;10366762;28;20041;-56
2021/10/24 05:17:37;;;;;;;3.17;2.22;;;18.30;66.00;;;;;;10365490;28;20362;-54
2021/10/24 05:22:38;;;;;;;4.43;2.30;;;18.30;66.30;;;;;;10362414;28;20044;-55
2021/10/24 05:27:38;;;;;;;4.43;2.17;;;18.40;67.20;;;;;;10349855;28;20048;-54
2021/10/24 05:32:39;;;;;;;3.13;2.10;;;18.40;67.20;;;;;;10347497;28;20089;-56
2021/10/24 05:37:40;;;;;;;3.92;1.95;;;18.50;66.90;;;;;;10343138;28;20119;-55
2021/10/24 05:42:41;;;;;;;9.30;3.03;;;18.60;67.00;;;;;;10351948;28;20069;-53
2021/10/24 05:47:41;;;;;;;6.47;2.25;;;18.60;67.70;;;;;;10338841;28;20026;-57
2021/10/24 05:52:42;;;;;;;11.63;2.90;;;18.50;68.00;;;;;;10359790;28;20038;-55
2021/10/24 05:57:43;;;;;;;8.07;2.22;;;18.50;68.00;;;;;;10361322;28;20041;-55
2021/10/24 06:02:43;;;;;;;11.05;2.58;;;18.60;67.10;;;;;;10379469;28;20482;-57
2021/10/24 06:07:45;;;;;;;7.82;2.70;;;18.70;67.20;;;;;;10376520;28;20072;-56
2021/10/24 06:12:51;;;;;;;9.88;2.65;;;18.80;66.50;;;;;;10351232;28;20415;-55
2021/10/24 06:17:52;;;;;;;8.95;2.67;;;18.90;66.90;;;;;;10364230;28;20404;-56
2021/10/24 06:22:53;;;;;;;9.65;2.55;;;19.10;66.10;;;;;;10362165;28;20026;-49
2021/10/24 06:27:54;;;;;;;8.75;2.30;;;19.10;65.40;;;;;;10374939;28;20108;-55
2021/10/24 06:32:54;;;;;;;4.43;1.98;;;19.10;65.20;;;;;;10373175;28;20038;-56
2021/10/24 06:37:55;;;;;;;9.02;2.45;;;19.00;65.20;;;;;;10354677;28;20045;-55
2021/10/24 06:42:56;;;;;;;10.25;2.35;;;18.90;65.50;;;;;;10364946;28;20572;-60
2021/10/24 06:47:57;;;;;;;6.05;2.15;;;18.90;65.90;;;;;;10369798;28;20113;-57
2021/10/24 06:52:58;;;;;;;4.75;2.25;;;19.00;65.50;;;;;;10352816;28;20030;-55
2021/10/24 06:57:58;;;;;;;6.75;2.28;;;18.90;65.50;;;;;;10360221;28;20045;-54
2021/10/24 07:02:59;;;;;;;5.57;2.42;;;18.90;65.30;;;;;;10375504;28;20084;-52
2021/10/24 07:08:00;;;;;;;7.82;2.40;;;18.70;65.60;;;;;;10338118;28;20037;-48
2021/10/24 07:13:01;;;;;;;4.88;2.08;;;18.80;65.60;;;;;;10350751;28;20026;-53
2021/10/24 07:18:02;;;;;;;9.80;2.30;;;18.80;65.60;;;;;;10359875;28;20109;-51
2021/10/24 07:23:02;;;;;;;5.70;1.95;;;18.70;65.90;;;;;;10335433;28;20034;-49
2021/10/24 07:28:03;;;;;;;3.95;1.73;;;18.80;65.80;;;;;;10352587;28;20035;-51
2021/10/24 07:33:04;;;;;;;4.90;1.52;;;18.70;65.80;;;;;;10373107;28;20030;-50
2021/10/24 07:38:05;;;;;;;2.88;1.60;;;18.70;66.00;;;;;;10375273;28;20498;-48
2021/10/24 07:43:06;;;;;;;6.18;2.10;;;18.80;65.80;;;;;;10374622;28;20111;-52
2021/10/24 07:48:07;;;;;;;3.88;1.70;;;18.70;65.80;;;;;;10374900;28;20116;-49
2021/10/24 07:53:08;;;;;;;6.13;1.83;;;18.70;66.10;;;;;;10351937;28;20030;-49
2021/10/24 07:58:09;;;;;;;4.07;1.80;;;18.60;66.50;;;;;;10332391;28;20065;-49
2021/10/24 08:03:10;;;;;;;4.90;1.73;;;18.70;66.20;;;;;;10346561;28;20042;-51
2021/10/24 08:08:10;;;;;;;3.72;1.80;;;18.70;66.30;;;;;;10340261;28;20070;-50
2021/10/24 08:13:11;;;;;;;4.78;1.65;;;18.60;66.70;;;;;;10333348;28;20447;-50
2021/10/24 08:18:12;;;;;;;4.82;1.40;;;18.50;67.20;;;;;;10352034;28;20064;-52
2021/10/24 08:23:15;;;;;;;6.47;2.08;;;18.30;67.50;;;;;;10373502;28;20497;-51
2021/10/24 08:28:16;;;;;;;3.25;1.40;;;18.20;67.80;;;;;;10339665;28;20118;-53
2021/10/24 08:33:17;;;;;;;5.70;1.58;;;18.10;68.40;;;;;;10361665;28;20026;-53
2021/10/24 08:38:18;;;;;;;2.63;1.45;;;18.10;69.00;;;;;;10372404;28;20052;-50
2021/10/24 08:43:20;;;;;;;6.88;2.33;;;18.00;69.20;;;;;;10367392;28;20119;-49
2021/10/24 08:48:22;;;;;;;4.50;1.52;;;18.00;68.90;;;;;;10321028;28;20073;-54
2021/10/24 08:53:28;;;;;;;5.75;2.30;;;18.00;69.20;;;;;;10347809;28;20033;-55
2021/10/24 08:58:29;;;;;;;7.47;2.20;;;18.00;69.20;;;;;;10364422;28;20038;-55
2021/10/24 09:03:29;;;;;;;7.60;2.10;;;18.10;69.20;;;;;;10370515;28;20034;-48
2021/10/24 09:08:30;;;;;;;10.77;2.30;;;18.10;69.40;;;;;;10369700;28;20033;-48
2021/10/24 09:13:35;;;;;;;6.25;2.10;;;18.00;69.40;;;;;;10343349;28;20125;-48
2021/10/24 09:18:45;;;;;;;5.72;2.45;;;18.00;69.40;;;;;;10378491;28;20034;-46
2021/10/24 09:24:06;;;;;;;4.90;2.90;;;18.00;69.30;;;;;;10376482;28;20041;-48
2021/10/24 09:29:15;;;;;;;4.15;2.10;;;18.00;69.20;;;;;;10342148;28;20042;-48
2021/10/24 09:34:24;;;;;;;4.95;2.60;;;18.00;69.10;;;;;;10368362;28;20034;-46
2021/10/24 09:39:31;;;;;;;5.93;2.80;;;18.00;68.90;;;;;;10357858;28;20099;-46
2021/10/24 09:44:31;;;;;;;8.38;2.53;;;18.00;68.80;;;;;;10350783;28;20049;-47
2021/10/24 09:49:41;;;;;;;5.95;2.38;;;18.00;68.80;;;;;;10329435;28;20105;-47
2021/10/24 09:54:50;;;;;;;5.70;2.80;;;18.10;69.00;;;;;;10336110;28;20026;-46
2021/10/24 09:59:53;;;;;;;6.78;2.85;;;18.10;69.60;;;;;;10344195;28;20039;-46
2021/10/24 10:04:55;;;;;;;4.10;2.22;;;18.10;70.00;;;;;;10366807;28;20121;-47
2021/10/24 10:09:56;;;;;;;4.72;2.80;;;18.10;70.40;;;;;;10368423;28;20018;-47
2021/10/24 10:15:00;;;;;;;5.35;2.72;;;18.10;70.50;;;;;;10330545;28;20479;-48
2021/10/24 10:20:21;;;;;;;8.15;2.72;;;18.10;70.70;;;;;;10370345;28;20025;-47
2021/10/24 10:25:31;;;;;;;5.97;2.83;;;18.20;70.80;;;;;;10365227;28;20070;-50
2021/10/24 10:30:42;;;;;;;4.35;2.85;;;18.20;70.80;;;;;;10355086;28;20379;-47
2021/10/24 10:35:53;;;;;;;5.38;2.92;;;18.20;70.90;;;;;;10353388;28;20038;-48
2021/10/24 10:40:56;;;;;;;5.28;2.90;;;18.20;71.30;;;;;;10371596;28;20044;-47
2021/10/24 10:46:03;;;;;;;6.32;3.17;;;18.20;71.50;;;;;;10368579;28;20034;-47
2021/10/24 10:51:23;;;;;;;6.40;3.13;;;18.30;71.60;;;;;;10365305;28;20070;-46
2021/10/24 10:56:26;;;;;;;6.85;3.45;;;18.30;71.80;;;;;;10352113;28;20032;-49
2021/10/24 11:01:27;;;;;;;6.38;3.40;;;18.30;71.80;;;;;;10353364;28;20362;-50
2021/10/24 11:06:28;;;;;;;9.10;3.33;;;18.30;71.80;;;;;;10374567;28;20033;-48
2021/10/24 11:11:40;;;;;;;8.85;3.40;;;18.30;71.50;;;;;;10403421;28;20481;-50
2021/10/24 11:16:52;;;;;;;6.40;3.22;;;18.30;71.20;;;;;;10361675;28;20117;-45
2021/10/24 11:21:58;;;;;;;8.43;3.65;;;18.40;71.20;;;;;;10368484;28;20026;-47
2021/10/24 11:27:01;;;;;;;7.05;3.08;;;18.40;71.00;;;;;;10369528;28;20552;-46
2021/10/24 11:32:26;;;;;;;5.53;2.83;;;18.40;71.20;;;;;;10364907;28;20025;-52
2021/10/24 11:37:35;;;;;;;13.35;3.78;;;18.50;71.30;;;;;;10370149;28;20038;-52
2021/10/24 11:42:37;;;;;;;11.23;3.65;;;18.50;71.30;;;;;;10364611;28;20121;-53
2021/10/24 11:47:38;;;;;;;7.90;2.88;;;18.50;71.40;;;;;;10377017;28;20053;-49
2021/10/24 11:52:39;;;;;;;12.52;3.28;;;18.50;71.20;;;;;;10359466;28;20030;-49
2021/10/24 12:02:58;;;;;;;8.95;3.50;;;18.50;71.50;;;;;;10383253;28;20037;-48
2021/10/24 12:07:59;;;;;;;8.27;3.10;;;18.60;71.60;;;;;;10375694;28;20026;-48
2021/10/24 12:13:03;;;;;;;9.63;3.13;;;18.50;71.60;;;;;;10385236;28;20041;-48
2021/10/24 12:18:16;;;;;;;8.80;3.65;;;18.60;71.20;;;;;;10372738;28;20030;-53
2021/10/24 12:23:17;;;;;;;10.25;3.70;;;18.70;70.70;;;;;;10359132;28;20091;-52
2021/10/24 12:28:35;;;;;;;8.82;4.47;;;18.80;72.10;;;;;;10364906;28;20034;-52
2021/10/24 12:33:41;;;;;;;13.73;3.55;;;19.00;72.40;;;;;;10388622;28;20065;-52
2021/10/24 12:38:52;;;;;;;9.38;4.07;;;19.20;73.00;;;;;;10378564;28;20038;-54
2021/10/24 12:43:53;;;;;;;10.45;3.97;;;19.30;73.30;;;;;;10372892;28;20048;-53
2021/10/24 12:48:54;;;;;;;7.18;4.07;;;19.30;73.90;;;;;;10368915;28;20615;-53
2021/10/24 12:53:59;;;;;;;8.57;4.70;;;19.30;74.30;;;;;;10374428;28;20394;-55
2021/10/24 12:58:59;;;;;;;8.80;5.45;;;19.40;74.90;;;;;;10355393;28;20037;-53
2021/10/24 13:04:02;;;;;;;10.10;5.35;;;19.40;74.10;;;;;;10366289;28;20113;-53
2021/10/24 13:09:03;;;;;;;14.20;5.57;;;19.40;74.80;;;;;;10349241;28;20383;-54
2021/10/24 13:14:04;;;;;;;19.30;6.20;;;19.40;73.80;;;;;;10353452;28;20061;-55
2021/10/24 13:19:05;;;;;;;16.73;6.60;;;19.40;72.10;;;;;;10346071;28;20562;-49
2021/10/24 13:24:12;;;;;;;17.77;5.60;;;19.10;71.80;;;;;;10334010;28;20030;-54
2021/10/24 13:29:16;;;;;;;19.50;5.57;;;18.90;72.20;;;;;;10371643;28;20072;-51
2021/10/24 13:34:16;;;;;;;13.82;4.32;;;18.90;72.80;;;;;;10346250;28;20089;-47
2021/10/24 13:39:17;;;;;;;11.98;4.60;;;18.80;72.10;;;;;;10350560;28;20083;-47
2021/10/24 13:44:18;;;;;;;11.45;3.95;;;18.70;71.70;;;;;;10356288;28;20435;-47
2021/10/24 13:49:18;;;;;;;9.63;3.97;;;18.70;72.10;;;;;;10364455;28;20044;-49
2021/10/24 13:54:19;;;;;;;16.38;3.85;;;18.60;72.30;;;;;;10352452;28;20189;-45
2021/10/24 13:59:20;;;;;;;12.68;4.03;;;18.60;72.60;;;;;;10342995;28;20212;-50
2021/10/24 14:04:21;;;;;;;7.10;3.10;;;18.50;72.60;;;;;;10372524;28;20554;-47
2021/10/24 14:09:21;;;;;;;9.10;3.17;;;18.50;72.70;;;;;;10372337;28;20038;-47
2021/10/24 14:14:22;;;;;;;6.97;3.08;;;18.40;72.80;;;;;;10348136;28;20137;-49
2021/10/24 14:19:23;;;;;;;8.73;3.28;;;18.40;72.80;;;;;;10362609;28;20029;-51
2021/10/24 14:24:24;;;;;;;5.50;2.58;;;18.30;72.80;;;;;;10372088;28;20482;-46
2021/10/24 14:29:26;;;;;;;5.25;2.95;;;18.30;72.80;;;;;;10338463;28;20525;-47
2021/10/24 14:34:27;;;;;;;7.90;3.65;;;18.30;73.00;;;;;;10333725;28;20039;-49
2021/10/24 14:39:27;;;;;;;7.22;2.83;;;18.20;73.00;;;;;;10333677;28;20070;-47
2021/10/24 14:44:29;;;;;;;7.32;2.50;;;18.10;73.00;;;;;;10345107;28;20030;-49
2021/10/24 14:49:29;;;;;;;6.22;2.55;;;18.10;73.20;;;;;;10376327;28;20034;-50
2021/10/24 14:54:30;;;;;;;6.10;2.53;;;18.00;73.30;;;;;;10343539;28;20038;-50
2021/10/24 14:59:31;;;;;;;7.45;2.85;;;18.00;73.40;;;;;;10335595;28;20105;-50
2021/10/24 15:04:33;;;;;;;6.30;2.67;;;18.00;73.50;;;;;;10358382;28;20070;-50
2021/10/24 15:09:33;;;;;;;9.40;2.55;;;17.90;73.50;;;;;;10364882;28;20025;-52
2021/10/24 15:14:36;;;;;;;13.80;2.90;;;17.90;73.10;;;;;;10368350;28;20034;-50
2021/10/24 15:24:58;;;;;;;8.50;3.53;;;18.00;72.40;;;;;;10370981;28;20478;-51
2021/10/24 15:29:59;;;;;;;9.55;3.30;;;18.20;70.30;;;;;;10369178;28;20486;-46
2021/10/24 15:35:00;;;;;;;7.45;3.47;;;18.50;68.60;;;;;;10367925;28;20042;-48
2021/10/24 15:40:04;;;;;;;6.30;3.50;;;18.80;67.50;;;;;;10372192;28;20073;-50
2021/10/24 15:45:06;;;;;;;10.43;4.80;;;18.90;67.50;;;;;;10368587;28;20037;-51
2021/10/24 15:50:13;;;;;;;8.10;5.22;;;19.00;67.60;;;;;;10373433;28;20030;-50
2021/10/24 15:55:14;;;;;;;9.98;5.90;;;19.00;67.60;;;;;;10370154;28;20029;-52
2021/10/24 16:00:15;;;;;;;7.95;5.65;;;19.00;67.70;;;;;;10378808;28;20030;-51
2021/10/24 16:05:16;;;;;;;8.27;5.03;;;19.10;67.90;;;;;;10369306;28;20041;-48
2021/10/24 16:10:17;;;;;;;6.65;4.07;;;19.20;68.10;;;;;;10368582;28;20040;-52
2021/10/24 16:15:18;;;;;;;6.85;4.50;;;19.40;67.10;;;;;;10369612;28;20490;-50
2021/10/24 16:20:20;;;;;;;13.23;5.18;;;19.20;68.90;;;;;;10357699;28;20066;-50
2021/10/24 16:25:20;;;;;;;10.10;5.13;;;19.10;71.20;;;;;;10371499;28;20429;-52
2021/10/24 16:30:22;;;;;;;14.07;4.47;;;19.10;70.90;;;;;;10365762;28;20034;-48
2021/10/24 16:35:23;;;;;;;8.68;4.65;;;19.00;71.70;;;;;;10348215;28;20034;-48
2021/10/24 16:40:24;;;;;;;13.50;5.65;;;18.90;71.50;;;;;;10372712;28;20045;-48
2021/10/24 16:45:25;;;;;;;14.80;4.82;;;18.90;71.40;;;;;;10367026;28;20054;-49
2021/10/24 16:50:26;;;;;;;12.43;4.88;;;18.80;71.30;;;;;;10362159;28;20033;-49
2021/10/24 16:55:30;;;;;;;14.18;4.00;;;18.70;71.40;;;;;;10357997;28;20485;-49
2021/10/24 17:00:31;;;;;;;20.98;5.00;;;18.60;71.60;;;;;;10371818;28;20032;-48
2021/10/24 17:05:32;;;;;;;9.50;3.72;;;18.60;71.80;;;;;;10347880;28;20482;-48
2021/10/24 17:10:33;;;;;;;7.97;4.35;;;18.50;71.90;;;;;;10353421;28;20026;-47
2021/10/24 17:15:34;;;;;;;10.20;4.80;;;18.40;71.70;;;;;;10358586;28;20065;-50
2021/10/24 17:20:35;;;;;;;11.68;4.00;;;18.40;71.80;;;;;;10355467;28;20422;-51
2021/10/24 17:25:37;;;;;;;8.80;4.10;;;18.40;71.80;;;;;;10351882;28;20081;-54
2021/10/24 17:30:38;;;;;;;12.98;4.53;;;18.40;72.00;;;;;;10347162;28;20026;-51
2021/10/24 17:35:38;;;;;;;10.50;4.03;;;18.30;72.10;;;;;;10352157;28;20474;-50
2021/10/24 17:40:42;;;;;;;8.32;4.10;;;18.20;72.20;;;;;;10346409;28;20058;-52
2021/10/24 17:45:43;;;;;;;8.63;4.07;;;18.20;72.30;;;;;;10363092;28;20027;-51
2021/10/24 17:50:43;;;;;;;15.25;4.63;;;18.20;72.90;;;;;;10346496;28;20023;-52
2021/10/24 17:55:44;;;;;;;8.82;4.05;;;18.10;73.10;;;;;;10352779;28;20495;-50
2021/10/24 18:00:45;;;;;;;10.18;4.35;;;18.10;73.20;;;;;;10357239;28;20037;-53
2021/10/24 18:05:45;;;;;;;9.60;3.65;;;18.10;73.20;;;;;;10373773;28;20029;-50
2021/10/24 18:10:47;;;;;;;11.52;3.90;;;18.00;73.20;;;;;;10378297;28;20452;-48
2021/10/24 18:15:49;;;;;;;8.90;4.45;;;18.10;73.30;;;;;;10368771;28;20026;-54
2021/10/24 18:20:51;;;;;;;8.20;3.63;;;18.00;73.30;;;;;;10358595;28;20022;-50
2021/10/24 18:25:52;;;;;;;12.65;4.43;;;18.00;73.40;;;;;;10358715;28;20033;-50
2021/10/24 18:30:54;;;;;;;6.68;3.72;;;18.00;73.40;;;;;;10367507;28;20517;-50
2021/10/24 18:35:55;;;;;;;8.23;3.95;;;18.00;73.50;;;;;;10374355;28;20029;-51
2021/10/24 18:40:56;;;;;;;7.82;4.07;;;18.00;73.50;;;;;;10373781;28;20088;-53
2021/10/24 18:45:57;;;;;;;8.23;3.10;;;18.00;73.40;;;;;;10369492;28;20018;-52
2021/10/24 18:50:59;;;;;;;7.50;4.05;;;17.90;72.90;;;;;;10376351;28;20062;-52
2021/10/24 18:56:01;;;;;;;7.18;3.80;;;17.90;73.10;;;;;;10358856;28;20042;-52
2021/10/24 19:01:05;;;;;;;6.75;4.05;;;17.90;73.20;;;;;;10377076;28;20034;-51
2021/10/24 19:06:06;;;;;;;5.78;3.40;;;17.80;73.10;;;;;;10372359;28;20038;-52
2021/10/24 19:11:08;;;;;;;6.60;3.53;;;17.80;72.90;;;;;;10375866;28;20462;-53
2021/10/24 19:16:09;;;;;;;6.63;3.38;;;17.80;72.80;;;;;;10365027;28;20089;-53
2021/10/24 19:21:10;;;;;;;6.38;3.38;;;17.80;72.80;;;;;;10347268;28;20057;-55
2021/10/24 19:26:14;;;;;;;5.32;3.40;;;17.70;72.70;;;;;;10339896;28;20113;-55
2021/10/24 19:31:14;;;;;;;4.50;3.13;;;17.70;72.70;;;;;;10334290;28;20394;-55
2021/10/24 19:36:15;;;;;;;5.45;3.20;;;17.70;72.80;;;;;;10334218;28;20130;-54
2021/10/24 19:41:16;;;;;;;6.22;3.42;;;17.70;72.70;;;;;;10333901;28;20054;-52
2021/10/24 19:46:17;;;;;;;6.13;3.50;;;17.60;72.70;;;;;;10333596;28;20153;-54
2021/10/24 19:51:18;;;;;;;7.70;3.85;;;17.60;72.60;;;;;;10332245;28;20041;-54
2021/10/24 19:56:33;;;;;;;5.50;3.58;;;17.60;72.60;;;;;;10332492;28;20029;-52
2021/10/24 20:01:34;;;;;;;5.45;3.05;;;17.50;72.50;;;;;;10343334;28;20084;-55
2021/10/24 20:06:35;;;;;;;5.45;3.95;;;17.50;72.50;;;;;;10359927;28;20081;-52
2021/10/24 20:11:36;;;;;;;7.53;3.72;;;17.50;72.40;;;;;;10332476;28;20858;-53
2021/10/24 20:16:36;;;;;;;5.18;3.20;;;17.50;72.50;;;;;;10334265;28;20114;-54
2021/10/24 20:21:37;;;;;;;4.05;2.97;;;17.40;72.40;;;;;;10332437;28;20470;-54
2021/10/24 20:26:38;;;;;;;6.28;3.10;;;17.40;72.40;;;;;;10350222;28;20041;-53
2021/10/24 20:31:39;;;;;;;4.93;2.75;;;17.40;72.40;;;;;;10332086;28;20165;-53
2021/10/24 20:36:39;;;;;;;5.00;2.90;;;17.40;72.40;;;;;;10332167;28;20045;-53
2021/10/24 20:41:40;;;;;;;7.00;2.80;;;17.40;72.40;;;;;;10330562;28;20129;-51
2021/10/24 20:46:41;;;;;;;4.18;2.92;;;17.40;72.30;;;;;;10331513;28;20062;-54
2021/10/24 20:51:42;;;;;;;3.65;2.80;;;17.40;72.40;;;;;;10330381;28;20471;-51
2021/10/24 20:56:44;;;;;;;10.77;3.55;;;17.40;72.40;;;;;;10331403;28;20022;-53
2021/10/24 21:01:47;;;;;;;3.83;2.80;;;17.40;72.40;;;;;;10343147;28;20032;-53
2021/10/24 21:06:48;;;;;;;4.57;2.67;;;17.40;72.20;;;;;;10357754;28;20022;-54
2021/10/24 21:11:49;;;;;;;3.95;2.40;;;17.40;72.00;;;;;;10356881;28;20057;-52
2021/10/24 21:16:50;;;;;;;4.05;2.70;;;17.40;72.00;;;;;;10333407;28;20030;-53
2021/10/24 21:21:50;;;;;;;3.97;3.03;;;17.40;71.90;;;;;;10331178;28;20109;-51
2021/10/24 21:26:51;;;;;;;3.85;2.95;;;17.40;71.90;;;;;;10350590;28;20030;-53
2021/10/24 21:31:52;;;;;;;4.00;2.70;;;17.40;71.90;;;;;;10330426;28;20102;-55
2021/10/24 21:36:52;;;;;;;4.30;2.78;;;17.40;71.80;;;;;;10330804;28;20096;-49
2021/10/24 21:41:53;;;;;;;4.82;2.70;;;17.50;71.80;;;;;;10330591;28;20125;-50
2021/10/24 21:46:54;;;;;;;4.22;2.72;;;17.50;71.40;;;;;;10329101;28;20030;-53
2021/10/24 21:51:54;;;;;;;4.40;2.33;;;17.60;71.40;;;;;;10329507;28;20037;-52
2021/10/24 21:56:55;;;;;;;4.82;2.97;;;17.50;71.50;;;;;;10330582;28;20109;-51
2021/10/24 22:01:58;;;;;;;3.85;2.40;;;17.50;71.60;;;;;;10343818;28;20109;-53
2021/10/24 22:06:59;;;;;;;4.28;2.80;;;17.40;71.60;;;;;;10369659;28;20112;-50
2021/10/24 22:12:00;;;;;;;4.63;2.47;;;17.50;71.60;;;;;;10371051;28;20641;-53
2021/10/24 22:17:01;;;;;;;3.92;2.67;;;17.50;71.50;;;;;;10371082;28;20022;-52
2021/10/24 22:22:02;;;;;;;4.55;2.58;;;17.40;71.30;;;;;;10342439;28;20030;-51
2021/10/24 22:27:05;;;;;;;8.57;2.60;;;17.40;71.40;;;;;;10362686;28;20039;-55
2021/10/24 22:32:08;;;;;;;3.88;2.40;;;17.40;71.50;;;;;;10336749;28;20374;-54
2021/10/24 22:37:08;;;;;;;3.67;2.53;;;17.30;71.40;;;;;;10336967;28;20154;-54
2021/10/24 22:42:09;;;;;;;4.45;2.90;;;17.50;71.20;;;;;;10336636;28;20584;-52
2021/10/24 22:47:10;;;;;;;4.22;2.78;;;17.50;70.90;;;;;;10336336;28;20031;-52
2021/10/24 22:52:12;;;;;;;3.47;1.92;;;17.50;70.90;;;;;;10361929;28;20048;-53
2021/10/24 22:57:14;;;;;;;5.88;2.92;;;17.50;71.00;;;;;;10336230;28;20026;-52
2021/10/24 23:02:16;;;;;;;3.03;2.20;;;17.50;70.90;;;;;;10352118;28;20712;-53
2021/10/24 23:07:17;;;;;;;4.72;2.58;;;17.60;70.50;;;;;;10376235;28;20036;-52
2021/10/24 23:12:18;;;;;;;3.70;2.58;;;17.70;70.20;;;;;;10375971;28;20041;-53
2021/10/24 23:17:19;;;;;;;3.63;2.85;;;17.70;70.00;;;;;;10367522;28;20015;-54
2021/10/24 23:22:19;;;;;;;3.88;2.65;;;17.70;70.00;;;;;;10335570;28;20037;-51
2021/10/24 23:27:20;;;;;;;3.67;2.70;;;17.70;70.10;;;;;;10362608;28;20038;-53
2021/10/24 23:32:21;;;;;;;2.60;1.98;;;17.70;70.00;;;;;;10350999;28;20034;-51
2021/10/24 23:37:22;;;;;;;4.82;2.95;;;17.70;70.20;;;;;;10334715;28;20035;-53
2021/10/24 23:42:26;;;;;;;3.80;2.35;;;17.60;70.40;;;;;;10334168;28;20152;-52
2021/10/24 23:47:26;;;;;;;3.13;2.63;;;17.60;70.50;;;;;;10334125;28;20038;-53
2021/10/24 23:52:27;;;;;;;4.75;2.53;;;17.50;70.60;;;;;;10333871;28;20026;-53
2021/10/24 23:57:28;;;;;;;4.10;2.15;;;17.50;70.70;;;;;;10333648;28;20022;-52
